Time;durP1;ratioP1;P1;durP2;ratioP2;P2;SDS_P1;SDS_P2;PMS_P1;PMS_P2;Temp;Humidity;BMP_temperature;BMP_pressure;BME280_temperature;BME280_humidity;BME280_pressure;Samples;Min_cycle;Max_cycle;Signal;HPM_P1;HPM_P2
2023/01/13 00:00:34;;;;;;;6.30;1.17;;;9.10;99.90;;;;;;5033154;28;20156;-67
2023/01/13 00:02:59;;;;;;;3.10;0.90;;;9.00;99.90;;;;;;5032133;28;20094;-67
2023/01/13 00:05:25;;;;;;;9.00;2.60;;;9.00;99.90;;;;;;5033099;28;20038;-67
2023/01/13 00:07:51;;;;;;;4.35;1.50;;;8.90;99.90;;;;;;5033184;28;20508;-67
2023/01/13 00:10:17;;;;;;;14.00;1.60;;;8.90;99.90;;;;;;5033278;28;20059;-67
2023/01/13 00:12:43;;;;;;;4.10;1.20;;;8.80;99.90;;;;;;5033062;28;20030;-67
2023/01/13 00:15:10;;;;;;;2.65;1.25;;;8.80;99.90;;;;;;5015311;28;20120;-67
2023/01/13 00:17:37;;;;;;;11.07;1.65;;;8.70;99.90;;;;;;5033025;28;20120;-67
2023/01/13 00:20:03;;;;;;;8.52;2.15;;;8.70;99.90;;;;;;5033071;28;20805;-67
2023/01/13 00:22:32;;;;;;;5.57;1.65;;;8.70;99.90;;;;;;5033493;28;20034;-67
2023/01/13 00:25:00;;;;;;;15.55;2.28;;;8.50;99.90;;;;;;5031627;28;20041;-67
2023/01/13 00:27:26;;;;;;;8.93;2.00;;;8.70;99.90;;;;;;5033108;28;20045;-67
2023/01/13 00:29:52;;;;;;;11.90;1.77;;;8.50;99.90;;;;;;5031606;28;20420;-67
2023/01/13 00:32:17;;;;;;;10.57;2.08;;;8.40;99.90;;;;;;5033057;28;20042;-67
2023/01/13 00:34:43;;;;;;;9.00;2.08;;;8.50;99.90;;;;;;5033023;28;20099;-67
2023/01/13 00:37:11;;;;;;;4.53;0.93;;;8.50;99.90;;;;;;5035521;28;20041;-67
2023/01/13 00:39:37;;;;;;;2.72;1.55;;;8.50;99.90;;;;;;5037117;28;20049;-67
2023/01/13 00:44:47;;;;;;;16.27;3.10;;;8.60;99.90;;;;;;5036699;28;20041;-67
2023/01/13 00:47:13;;;;;;;9.18;0.90;;;8.50;99.90;;;;;;5035733;28;20033;-67
2023/01/13 00:49:39;;;;;;;8.27;1.95;;;8.40;99.90;;;;;;5035554;28;20038;-67
2023/01/13 00:52:04;;;;;;;6.25;1.77;;;8.50;99.90;;;;;;5036669;28;20045;-67
2023/01/13 00:54:30;;;;;;;6.72;2.28;;;8.30;99.90;;;;;;5035291;28;20048;-67
2023/01/13 00:56:56;;;;;;;16.45;1.77;;;;;;;;;;5036616;28;20060;-67
2023/01/13 00:59:22;;;;;;;18.83;2.75;;;;;;;;;;5035211;28;20037;-67
2023/01/13 01:01:48;;;;;;;7.35;2.08;;;;;;;;;;5036635;28;20045;-67
2023/01/13 01:04:14;;;;;;;6.47;1.90;;;;;;;;;;5036683;28;20378;-68
2023/01/13 01:06:40;;;;;;;7.60;1.45;;;;;;;;;;5036627;28;20469;-67
2023/01/13 01:09:06;;;;;;;12.27;1.55;;;;;;;;;;5036253;28;20064;-67
2023/01/13 01:11:33;;;;;;;16.08;2.30;;;;;;;;;;5035117;28;20042;-67
2023/01/13 01:14:00;;;;;;;18.20;3.25;;;;;;;;;;5036496;28;20041;-67
2023/01/13 01:16:27;;;;;;;7.43;1.58;;;;;;;;;;5034956;28;20125;-67
2023/01/13 01:18:54;;;;;;;20.23;2.53;;;;;;;;;;5035148;28;20046;-67
2023/01/13 01:21:21;;;;;;;2.13;1.73;;;;;;;;;;5034872;28;20041;-67
2023/01/13 01:23:47;;;;;;;19.77;3.17;;;;;;;;;;5036340;28;20120;-67
2023/01/13 01:26:15;;;;;;;13.75;1.90;;;;;;;;;;5034736;28;20084;-67
2023/01/13 01:28:41;;;;;;;10.57;1.83;;;8.10;99.90;;;;;;5035941;28;20048;-67
2023/01/13 01:31:09;;;;;;;9.43;2.60;;;8.10;99.90;;;;;;5018472;28;20508;-67
2023/01/13 01:33:35;;;;;;;16.02;2.15;;;7.90;99.90;;;;;;5036126;28;20069;-67
2023/01/13 01:36:02;;;;;;;8.88;1.80;;;7.80;99.90;;;;;;5035870;28;20481;-68
2023/01/13 01:38:28;;;;;;;8.90;2.53;;;7.80;99.90;;;;;;5034809;28;20069;-67
2023/01/13 01:40:54;;;;;;;11.07;2.75;;;7.80;99.90;;;;;;5035980;28;20092;-67
2023/01/13 01:46:06;;;;;;;4.32;1.90;;;7.80;99.90;;;;;;5035896;28;20073;-67
2023/01/13 01:48:39;;;;;;;5.78;1.60;;;7.80;99.90;;;;;;5033776;28;20519;-67
2023/01/13 01:51:10;;;;;;;15.65;1.80;;;7.90;99.90;;;;;;5034265;28;20133;-67
2023/01/13 01:53:36;;;;;;;3.67;1.55;;;7.90;99.90;;;;;;5017801;28;20049;-67
2023/01/13 01:56:02;;;;;;;8.23;0.95;;;7.90;99.90;;;;;;5034253;28;20472;-67
2023/01/13 01:58:34;;;;;;;14.27;2.22;;;8.00;99.90;;;;;;5034496;28;20068;-67
2023/01/13 02:01:00;;;;;;;17.70;1.92;;;7.90;99.90;;;;;;5034387;28;20041;-67
2023/01/13 02:03:25;;;;;;;6.65;1.30;;;7.90;99.90;;;;;;5034002;28;20046;-67
2023/01/13 02:05:51;;;;;;;11.73;2.00;;;7.90;99.90;;;;;;5035654;28;20542;-67
2023/01/13 02:08:18;;;;;;;8.10;2.30;;;7.90;99.90;;;;;;5035281;28;20107;-67
2023/01/13 02:10:49;;;;;;;17.42;2.17;;;7.70;99.90;;;;;;5035209;28;20103;-67
2023/01/13 02:13:15;;;;;;;;;;;7.80;99.90;;;;;;5035800;28;20088;-67
2023/01/13 02:16:02;;;;;;;7.65;0.90;;;8.00;99.90;;;;;;5035362;28;20388;-67
2023/01/13 02:18:46;;;;;;;4.05;1.02;;;7.90;99.90;;;;;;5035042;28;20042;-66
2023/01/13 02:21:33;;;;;;;8.60;1.17;;;8.10;99.90;;;;;;5033746;28;20057;-67
2023/01/13 02:27:22;;;;;;;8.57;1.48;;;7.70;99.90;;;;;;5033575;28;20124;-66
2023/01/13 02:33:02;;;;;;;10.05;2.22;;;7.90;99.90;;;;;;5035089;28;20073;-67
2023/01/13 02:35:49;;;;;;;11.43;1.73;;;7.80;99.90;;;;;;5033475;28;20099;-67
2023/01/13 02:38:18;;;;;;;9.38;2.88;;;7.90;99.90;;;;;;5035022;28;20041;-67
2023/01/13 02:40:49;;;;;;;11.60;2.55;;;7.90;99.90;;;;;;5033317;28;20045;-67
2023/01/13 02:46:31;;;;;;;5.75;1.42;;;7.80;99.90;;;;;;5033296;28;20076;-67
2023/01/13 02:49:03;;;;;;;13.20;2.05;;;8.00;99.90;;;;;;5034801;28;20043;-67
2023/01/13 02:51:31;;;;;;;8.02;2.72;;;7.70;99.90;;;;;;5034657;28;20515;-67
2023/01/13 02:54:19;;;;;;;5.80;2.00;;;7.70;99.90;;;;;;5034326;28;20099;-66
2023/01/13 02:56:49;;;;;;;5.60;2.00;;;7.80;99.90;;;;;;5034297;28;20081;-67
2023/01/13 02:59:17;;;;;;;18.50;1.92;;;7.70;99.90;;;;;;5033634;28;20397;-67
2023/01/13 03:01:42;;;;;;;3.25;1.55;;;7.70;99.90;;;;;;5034454;28;20107;-67
2023/01/13 03:04:31;;;;;;;4.53;1.48;;;7.70;99.90;;;;;;5034729;28;20456;-67
2023/01/13 03:07:07;;;;;;;7.80;2.05;;;7.70;99.90;;;;;;5032915;28;20041;-67
2023/01/13 03:09:42;;;;;;;8.55;2.35;;;7.70;99.90;;;;;;5032659;28;20060;-67
2023/01/13 03:12:21;;;;;;;8.23;1.73;;;7.70;99.90;;;;;;5032754;28;20038;-67
2023/01/13 03:14:58;;;;;;;9.10;1.10;;;7.70;99.90;;;;;;5034277;28;20037;-67
2023/01/13 03:17:40;;;;;;;9.30;1.75;;;7.70;99.90;;;;;;5032710;28;20064;-67
2023/01/13 03:20:16;;;;;;;7.18;1.27;;;7.70;99.90;;;;;;5034152;28;20045;-67
2023/01/13 03:23:07;;;;;;;13.95;1.63;;;7.60;99.90;;;;;;5032913;28;20041;-67
2023/01/13 03:25:42;;;;;;;7.43;2.30;;;7.70;99.90;;;;;;5032562;28;20068;-67
2023/01/13 03:28:19;;;;;;;3.60;1.42;;;7.60;99.90;;;;;;5034093;28;20398;-67
2023/01/13 03:30:53;;;;;;;9.93;1.60;;;7.70;99.90;;;;;;5034015;28;20084;-67
2023/01/13 03:33:24;;;;;;;8.57;2.42;;;7.60;99.90;;;;;;5033906;28;20041;-67
2023/01/13 03:35:51;;;;;;;;;;;7.60;99.90;;;;;;5034317;28;20049;-67
2023/01/13 03:38:43;;;;;;;6.55;1.33;;;7.70;99.90;;;;;;5033896;28;19917;-67
2023/01/13 03:41:19;;;;;;;4.25;1.85;;;7.70;99.90;;;;;;5033698;28;20045;-67
2023/01/13 03:46:49;;;;;;;7.43;1.65;;;7.70;99.90;;;;;;5032156;28;20475;-67
2023/01/13 03:49:21;;;;;;;11.80;1.92;;;7.70;99.90;;;;;;5033699;28;20449;-67
2023/01/13 03:51:54;;;;;;;15.07;2.42;;;7.70;99.90;;;;;;5032158;28;20038;-67
2023/01/13 03:54:23;;;;;;;17.42;3.95;;;7.70;99.90;;;;;;5015892;28;20365;-67
2023/01/13 03:56:56;;;;;;;5.13;1.67;;;7.70;99.90;;;;;;5032030;28;20057;-67
2023/01/13 03:59:25;;;;;;;20.45;2.13;;;7.80;99.90;;;;;;5032196;28;20045;-67
2023/01/13 04:01:55;;;;;;;14.50;2.38;;;8.30;99.90;;;;;;5033413;28;20045;-67
2023/01/13 04:04:29;;;;;;;11.32;1.63;;;7.90;99.90;;;;;;5032294;28;20477;-67
2023/01/13 04:07:17;;;;;;;15.35;2.22;;;7.90;99.90;;;;;;5031965;28;20091;-67
2023/01/13 04:09:55;;;;;;;4.80;1.90;;;7.90;99.90;;;;;;5032738;28;20053;-68
2023/01/13 04:13:04;;;;;;;6.28;2.10;;;7.90;99.90;;;;;;5032165;28;20531;-67
2023/01/13 04:15:33;;;;;;;7.85;1.73;;;8.00;99.90;;;;;;5020609;28;20444;-67
2023/01/13 04:18:22;;;;;;;11.60;2.42;;;8.00;99.90;;;;;;5031688;28;20045;-67
2023/01/13 04:20:50;;;;;;;11.10;2.58;;;8.00;99.90;;;;;;5031778;28;20496;-67
2023/01/13 04:23:16;;;;;;;7.97;2.83;;;8.00;99.90;;;;;;5033198;28;20393;-68
2023/01/13 04:25:43;;;;;;;6.35;2.55;;;7.90;99.90;;;;;;5033198;28;20488;-67
2023/01/13 04:28:09;;;;;;;13.75;2.70;;;8.00;99.90;;;;;;5031949;28;20121;-67
2023/01/13 04:30:35;;;;;;;7.45;2.28;;;8.00;99.90;;;;;;5031868;28;20041;-67
2023/01/13 04:33:03;;;;;;;5.82;1.40;;;7.90;99.90;;;;;;5031539;28;20059;-68
2023/01/13 04:35:29;;;;;;;7.35;3.00;;;7.90;99.90;;;;;;5031788;28;20045;-67
2023/01/13 04:37:54;;;;;;;10.02;1.55;;;7.80;99.90;;;;;;5031578;28;20124;-67
2023/01/13 04:40:20;;;;;;;7.13;1.65;;;7.70;99.90;;;;;;5032974;28;20113;-67
2023/01/13 04:42:47;;;;;;;12.85;1.90;;;7.90;99.90;;;;;;5015193;28;20113;-67
2023/01/13 04:45:13;;;;;;;6.18;2.40;;;7.80;99.90;;;;;;5033004;28;20124;-67
2023/01/13 04:47:40;;;;;;;6.10;1.90;;;7.90;99.90;;;;;;5032936;28;20049;-67
2023/01/13 04:50:06;;;;;;;15.65;3.00;;;7.90;99.90;;;;;;5015719;28;20041;-67
2023/01/13 04:52:32;;;;;;;5.72;2.25;;;7.80;99.90;;;;;;5031369;28;20052;-68
2023/01/13 04:54:58;;;;;;;10.10;2.78;;;7.80;99.90;;;;;;5031681;28;20042;-68
2023/01/13 04:57:23;;;;;;;13.13;1.88;;;7.70;99.90;;;;;;5032919;28;20473;-67
2023/01/13 04:59:49;;;;;;;4.43;1.55;;;7.70;99.90;;;;;;5032713;28;20515;-67
2023/01/13 05:02:18;;;;;;;8.63;2.45;;;7.80;99.90;;;;;;5032842;28;20069;-67
2023/01/13 05:04:46;;;;;;;13.32;2.55;;;7.80;99.90;;;;;;5014862;28;20121;-66
2023/01/13 05:07:12;;;;;;;12.52;2.15;;;7.80;99.90;;;;;;5031202;28;20404;-68
2023/01/13 05:09:37;;;;;;;19.27;2.63;;;7.80;99.90;;;;;;5014727;28;20059;-67
2023/01/13 05:17:32;;;;;;;9.93;1.88;;;7.90;99.90;;;;;;5031151;28;20455;-67
2023/01/13 05:19:58;;;;;;;18.23;1.98;;;7.90;99.90;;;;;;5032348;28;20095;-68
2023/01/13 05:25:21;;;;;;;10.38;2.00;;;7.90;99.90;;;;;;5036350;28;20049;-66
2023/01/13 05:27:52;;;;;;;11.45;3.03;;;7.90;99.90;;;;;;5035071;28;20037;-67
2023/01/13 05:30:20;;;;;;;20.60;2.45;;;8.40;99.90;;;;;;5035286;28;20547;-67
2023/01/13 05:32:46;;;;;;;6.57;1.92;;;7.90;99.90;;;;;;5036243;28;20087;-67
2023/01/13 05:35:12;;;;;;;10.52;1.88;;;8.00;99.90;;;;;;5034640;28;20077;-67
2023/01/13 05:37:38;;;;;;;8.00;1.85;;;8.00;99.90;;;;;;5035876;28;20459;-67
2023/01/13 05:43:18;;;;;;;8.15;2.15;;;8.00;99.90;;;;;;5036033;28;20481;-67
2023/01/13 05:45:49;;;;;;;5.63;0.85;;;8.00;99.90;;;;;;5034731;28;20052;-67
2023/01/13 05:48:16;;;;;;;2.17;1.10;;;7.90;99.90;;;;;;5035974;28;20088;-67
2023/01/13 05:50:43;;;;;;;8.50;2.22;;;7.90;99.90;;;;;;5035866;28;20120;-67
2023/01/13 05:53:09;;;;;;;6.68;2.13;;;7.90;99.90;;;;;;5034463;28;20045;-67
2023/01/13 05:55:37;;;;;;;5.60;1.67;;;7.90;99.90;;;;;;5034376;28;20046;-67
2023/01/13 05:58:03;;;;;;;9.05;1.70;;;8.00;99.90;;;;;;5035768;28;20119;-68
2023/01/13 06:00:29;;;;;;;5.30;1.08;;;7.90;99.90;;;;;;5035681;28;20067;-66
2023/01/13 06:02:54;;;;;;;14.13;2.30;;;7.90;99.90;;;;;;5035631;28;20029;-68
2023/01/13 06:05:20;;;;;;;8.13;1.42;;;7.90;99.90;;;;;;5034072;28;20037;-68
2023/01/13 06:07:45;;;;;;;10.48;1.48;;;7.80;99.90;;;;;;5035346;28;20034;-67
2023/01/13 06:10:11;;;;;;;13.18;1.73;;;8.40;99.90;;;;;;5034021;28;20583;-68
2023/01/13 06:12:37;;;;;;;11.18;2.00;;;7.80;99.90;;;;;;5017769;28;20481;-67
2023/01/13 06:15:03;;;;;;;13.75;1.08;;;7.60;99.90;;;;;;5034076;28;20034;-66
2023/01/13 06:17:28;;;;;;;8.32;1.27;;;7.80;99.90;;;;;;5033893;28;20041;-67
2023/01/13 06:19:54;;;;;;;8.82;1.25;;;7.90;99.90;;;;;;5033728;28;20041;-67
2023/01/13 06:22:34;;;;;;;5.53;2.55;;;7.90;99.90;;;;;;5035315;28;20112;-67
2023/01/13 06:25:00;;;;;;;8.57;0.88;;;8.20;99.90;;;;;;5035248;28;20100;-68
2023/01/13 06:27:27;;;;;;;2.60;0.73;;;8.00;99.90;;;;;;5033690;28;20087;-67
2023/01/13 06:29:55;;;;;;;4.07;0.93;;;8.00;99.90;;;;;;5035202;28;20083;-67
2023/01/13 06:32:27;;;;;;;5.32;1.38;;;8.00;99.90;;;;;;5035085;28;20069;-67
2023/01/13 06:34:59;;;;;;;10.02;1.30;;;8.00;99.90;;;;;;5016997;28;20077;-66
2023/01/13 06:37:27;;;;;;;12.77;1.65;;;8.00;99.90;;;;;;5017055;28;20452;-66
2023/01/13 06:39:58;;;;;;;7.28;1.15;;;8.00;99.90;;;;;;5034970;28;20043;-66
2023/01/13 06:45:13;;;;;;;8.55;1.35;;;8.00;99.90;;;;;;5034792;28;20040;-67
2023/01/13 06:47:39;;;;;;;9.93;1.30;;;8.00;99.90;;;;;;5034707;28;20057;-67
2023/01/13 06:50:04;;;;;;;5.18;1.20;;;8.00;99.90;;;;;;5034538;28;20572;-67
2023/01/13 06:52:30;;;;;;;13.77;1.45;;;8.00;99.90;;;;;;5033200;28;20041;-66
2023/01/13 06:54:56;;;;;;;5.00;1.83;;;8.00;99.90;;;;;;5016943;28;20489;-66
2023/01/13 06:57:22;;;;;;;11.57;1.52;;;8.00;99.90;;;;;;5034334;28;20117;-66
2023/01/13 06:59:48;;;;;;;5.40;0.90;;;8.00;99.90;;;;;;5033220;28;20039;-66
2023/01/13 07:02:13;;;;;;;1.08;0.60;;;7.90;99.90;;;;;;5033227;28;20124;-67
2023/01/13 07:04:39;;;;;;;5.80;1.15;;;8.00;99.90;;;;;;5033023;28;20121;-66
2023/01/13 07:07:06;;;;;;;9.85;2.47;;;8.00;99.90;;;;;;5034312;28;20542;-66
2023/01/13 07:09:32;;;;;;;1.67;1.02;;;8.90;99.90;;;;;;5034029;28;20409;-66
2023/01/13 07:11:57;;;;;;;5.35;1.30;;;7.90;99.90;;;;;;5034396;28;20045;-67
2023/01/13 07:17:07;;;;;;;1.10;0.60;;;7.90;99.90;;;;;;5033915;28;20120;-66
2023/01/13 07:19:33;;;;;;;3.25;1.08;;;7.90;99.90;;;;;;5034063;28;20135;-66
2023/01/13 07:21:59;;;;;;;2.38;0.73;;;7.90;99.90;;;;;;5032507;28;20045;-66
2023/01/13 07:24:24;;;;;;;6.18;1.80;;;7.90;99.90;;;;;;5032868;28;20077;-66
2023/01/13 07:26:51;;;;;;;7.63;1.27;;;8.40;99.90;;;;;;5032497;28;20037;-67
2023/01/13 07:29:17;;;;;;;6.72;1.30;;;7.80;99.90;;;;;;5033997;28;20518;-66
2023/01/13 07:31:42;;;;;;;5.18;1.17;;;7.80;99.90;;;;;;5034017;28;20081;-66
2023/01/13 07:34:08;;;;;;;2.67;1.10;;;7.80;99.90;;;;;;5032759;28;20405;-66
2023/01/13 07:36:34;;;;;;;6.90;2.03;;;7.80;99.90;;;;;;5033996;28;20560;-66
2023/01/13 07:38:59;;;;;;;2.08;0.65;;;7.80;99.90;;;;;;5032340;28;20076;-67
2023/01/13 07:44:09;;;;;;;1.75;0.88;;;7.70;99.90;;;;;;5033423;28;20046;-67
2023/01/13 07:46:36;;;;;;;7.53;1.13;;;7.70;99.90;;;;;;5033012;28;20049;-66
2023/01/13 07:49:02;;;;;;;2.88;1.35;;;7.60;99.90;;;;;;5033713;28;20041;-66
2023/01/13 07:51:28;;;;;;;4.05;1.00;;;7.50;99.90;;;;;;5033609;28;20037;-66
2023/01/13 07:53:54;;;;;;;12.10;2.22;;;7.50;99.90;;;;;;5032414;28;20068;-66
2023/01/13 07:56:19;;;;;;;5.85;1.13;;;7.50;99.90;;;;;;5032278;28;20473;-66
2023/01/13 07:58:49;;;;;;;10.32;1.10;;;7.40;99.90;;;;;;5032204;28;20041;-66
2023/01/13 08:01:16;;;;;;;9.20;1.25;;;7.40;99.90;;;;;;5031970;28;20505;-67
2023/01/13 08:03:42;;;;;;;15.93;1.85;;;7.40;99.90;;;;;;5033486;28;20077;-67
2023/01/13 08:06:09;;;;;;;3.38;1.40;;;7.40;99.90;;;;;;5031828;28;20492;-67
2023/01/13 08:08:35;;;;;;;4.63;0.80;;;7.30;99.90;;;;;;5033144;28;20459;-67
2023/01/13 08:11:02;;;;;;;1.48;0.80;;;7.40;99.90;;;;;;5031770;28;20060;-66
2023/01/13 08:13:28;;;;;;;4.15;0.75;;;7.40;99.90;;;;;;5033170;28;20041;-66
2023/01/13 08:16:06;;;;;;;6.88;1.30;;;7.40;99.90;;;;;;5031727;28;20405;-66
2023/01/13 08:18:33;;;;;;;0.65;0.60;;;7.40;99.90;;;;;;5033310;28;20377;-67
2023/01/13 08:21:07;;;;;;;14.13;2.60;;;7.40;99.90;;;;;;5048234;28;20119;-67
2023/01/13 08:23:33;;;;;;;3.60;0.75;;;7.40;99.90;;;;;;5031853;28;20425;-67
2023/01/13 08:26:01;;;;;;;11.70;1.25;;;7.40;99.90;;;;;;5031854;28;20068;-67
2023/01/13 08:28:27;;;;;;;7.25;1.35;;;7.40;99.90;;;;;;5031330;28;20038;-66
2023/01/13 08:30:53;;;;;;;12.52;1.27;;;7.40;99.90;;;;;;5033078;28;20045;-66
2023/01/13 08:33:19;;;;;;;8.07;1.02;;;7.40;99.90;;;;;;5031501;28;20413;-67
2023/01/13 08:35:45;;;;;;;11.68;1.35;;;7.50;99.90;;;;;;5031593;28;20037;-66
2023/01/13 08:38:10;;;;;;;3.35;1.95;;;7.40;99.90;;;;;;5032686;28;20064;-67
2023/01/13 08:40:38;;;;;;;10.10;2.50;;;7.50;99.90;;;;;;5014891;28;20072;-67
2023/01/13 08:43:04;;;;;;;9.00;2.10;;;7.50;99.90;;;;;;5031801;28;20034;-66
2023/01/13 08:45:30;;;;;;;7.45;1.27;;;7.50;99.90;;;;;;5031765;28;20041;-66
2023/01/13 08:47:55;;;;;;;6.10;0.90;;;7.50;99.90;;;;;;5032992;28;20034;-67
2023/01/13 08:50:21;;;;;;;8.23;1.33;;;7.40;99.90;;;;;;5032669;28;20045;-66
2023/01/13 08:52:46;;;;;;;5.20;1.05;;;7.50;99.90;;;;;;5031731;28;20045;-66
2023/01/13 08:55:12;;;;;;;5.82;1.70;;;7.60;99.90;;;;;;5032569;28;20041;-66
2023/01/13 08:57:38;;;;;;;5.32;1.40;;;7.60;99.90;;;;;;5033009;28;20253;-67
2023/01/13 09:00:05;;;;;;;3.95;0.98;;;7.60;99.90;;;;;;5036822;28;20047;-67
2023/01/13 09:02:32;;;;;;;5.22;0.98;;;7.60;99.90;;;;;;5035625;28;20034;-67
2023/01/13 09:04:59;;;;;;;4.55;1.20;;;7.60;99.90;;;;;;5035348;28;20041;-67
2023/01/13 09:07:25;;;;;;;8.27;1.95;;;8.00;99.90;;;;;;5035461;28;20038;-67
2023/01/13 09:09:51;;;;;;;5.03;1.05;;;7.60;99.90;;;;;;5036203;28;20061;-67
2023/01/13 09:15:02;;;;;;;14.20;2.42;;;7.60;99.90;;;;;;5035092;28;20050;-67
2023/01/13 09:17:27;;;;;;;16.63;2.17;;;7.60;99.90;;;;;;5036839;28;20033;-67
2023/01/13 09:19:53;;;;;;;4.05;1.00;;;7.60;99.90;;;;;;5018367;28;20041;-67
2023/01/13 09:22:20;;;;;;;14.02;1.45;;;7.70;99.90;;;;;;5018441;28;20116;-67
2023/01/13 09:24:45;;;;;;;4.28;0.88;;;7.70;99.90;;;;;;5036149;28;20041;-67
2023/01/13 09:27:13;;;;;;;1.40;0.52;;;7.70;99.90;;;;;;5036401;28;20033;-66
2023/01/13 09:29:39;;;;;;;3.83;1.23;;;7.50;99.90;;;;;;5036008;28;20128;-66
2023/01/13 09:32:05;;;;;;;2.22;1.02;;;7.50;99.90;;;;;;5036264;28;20087;-68
2023/01/13 09:37:16;;;;;;;5.70;0.95;;;7.50;99.90;;;;;;5036141;28;20041;-67
2023/01/13 09:39:41;;;;;;;5.30;0.80;;;7.40;99.90;;;;;;5035881;28;20453;-68
2023/01/13 09:45:10;;;;;;;21.30;1.85;;;7.30;99.90;;;;;;5036023;28;20048;-67
2023/01/13 09:47:44;;;;;;;7.07;1.15;;;7.30;99.90;;;;;;5035796;28;20092;-68
2023/01/13 09:50:13;;;;;;;5.22;1.83;;;7.30;99.90;;;;;;5035923;28;20042;-67
2023/01/13 09:52:40;;;;;;;7.00;1.75;;;7.30;99.90;;;;;;5034308;28;20056;-67
2023/01/13 09:55:10;;;;;;;6.70;1.98;;;7.30;99.90;;;;;;5035853;28;20489;-67
2023/01/13 09:57:38;;;;;;;5.18;0.93;;;7.30;99.90;;;;;;5034556;28;20052;-68
2023/01/13 10:00:21;;;;;;;6.68;1.05;;;7.30;99.90;;;;;;5035624;28;20045;-69
2023/01/13 10:03:18;;;;;;;8.57;1.33;;;7.40;99.90;;;;;;5034194;28;20099;-68
2023/01/13 10:05:55;;;;;;;7.65;1.42;;;7.30;99.90;;;;;;5035551;28;20045;-67
2023/01/13 10:08:33;;;;;;;17.05;1.98;;;7.20;99.90;;;;;;5034718;28;20050;-67
2023/01/13 10:14:19;;;;;;;7.10;1.55;;;7.20;99.90;;;;;;5015878;28;20439;-68
2023/01/13 10:16:51;;;;;;;;;;;7.30;99.90;;;;;;5035887;28;20442;-67
2023/01/13 10:19:23;;;;;;;15.18;3.00;;;7.40;99.90;;;;;;5034208;28;20365;-67
2023/01/13 10:22:01;;;;;;;6.00;1.92;;;7.40;99.90;;;;;;5035270;28;20053;-69
2023/01/13 10:24:32;;;;;;;5.35;1.25;;;7.40;99.90;;;;;;5033973;28;20497;-67
2023/01/13 10:27:03;;;;;;;9.00;2.03;;;7.40;99.90;;;;;;5035050;28;20073;-67
2023/01/13 10:29:30;;;;;;;13.23;1.60;;;7.30;99.90;;;;;;5035301;28;20044;-67
2023/01/13 10:31:58;;;;;;;13.20;2.28;;;7.00;99.90;;;;;;5035235;28;20538;-67
2023/01/13 10:34:25;;;;;;;12.57;2.53;;;7.20;99.90;;;;;;5035112;28;20071;-68
2023/01/13 10:37:01;;;;;;;4.25;1.45;;;7.40;99.90;;;;;;5033560;28;20049;-67
2023/01/13 10:39:36;;;;;;;5.60;1.48;;;7.10;99.90;;;;;;5016991;28;20049;-67
2023/01/13 10:42:04;;;;;;;12.18;2.00;;;7.10;99.90;;;;;;5034952;28;20485;-67
2023/01/13 10:44:30;;;;;;;6.20;1.58;;;7.10;99.90;;;;;;5017201;28;20144;-67
2023/01/13 10:46:58;;;;;;;9.75;1.52;;;7.20;99.90;;;;;;5034907;28;20125;-68
2023/01/13 10:49:35;;;;;;;1.55;1.20;;;7.20;99.90;;;;;;5033328;28;20041;-67
2023/01/13 10:52:03;;;;;;;3.35;0.68;;;7.20;99.90;;;;;;5034494;28;20049;-67
2023/01/13 10:54:29;;;;;;;8.65;1.90;;;7.20;99.90;;;;;;5035038;28;20041;-67
2023/01/13 10:57:21;;;;;;;6.50;1.48;;;7.10;99.90;;;;;;5034701;28;20034;-67
2023/01/13 10:59:49;;;;;;;11.98;2.00;;;7.30;99.90;;;;;;5034688;28;20049;-67
2023/01/13 11:02:23;;;;;;;2.00;1.33;;;7.20;99.90;;;;;;5033363;28;20120;-67
2023/01/13 11:04:51;;;;;;;5.72;0.90;;;7.20;99.90;;;;;;5034464;28;20048;-67
2023/01/13 11:07:49;;;;;;;11.95;1.92;;;7.00;99.90;;;;;;5034428;28;20037;-67
2023/01/13 11:10:30;;;;;;;6.47;1.33;;;7.30;99.90;;;;;;5028775;28;20438;-67
2023/01/13 11:13:10;;;;;;;8.52;1.55;;;7.30;99.90;;;;;;5032760;28;20381;-68
2023/01/13 11:16:04;;;;;;;10.18;1.75;;;7.30;99.90;;;;;;5016378;28;20049;-67
2023/01/13 11:19:01;;;;;;;19.08;1.58;;;7.40;99.90;;;;;;5034268;28;20512;-68
2023/01/13 11:21:45;;;;;;;5.85;1.05;;;7.40;99.90;;;;;;5015592;28;20129;-68
2023/01/13 11:24:19;;;;;;;8.40;1.85;;;7.70;99.90;;;;;;5034055;28;20044;-67
2023/01/13 11:27:24;;;;;;;5.55;1.48;;;7.40;99.90;;;;;;5034028;28;20046;-67
2023/01/13 11:29:57;;;;;;;7.60;1.75;;;7.40;99.90;;;;;;5019635;28;20049;-67
2023/01/13 11:32:23;;;;;;;10.50;1.35;;;7.40;99.90;;;;;;5016415;28;20037;-67
2023/01/13 11:34:56;;;;;;;16.50;1.95;;;7.40;99.90;;;;;;5033979;28;20077;-69
2023/01/13 11:37:26;;;;;;;8.75;0.80;;;7.50;99.90;;;;;;5033862;28;20037;-70
2023/01/13 11:40:04;;;;;;;3.65;1.30;;;7.50;99.90;;;;;;5032543;28;20481;-68
2023/01/13 11:43:02;;;;;;;12.32;0.85;;;7.80;99.90;;;;;;5032297;28;20095;-71
2023/01/13 11:45:44;;;;;;;5.35;1.15;;;7.50;99.90;;;;;;5032742;28;20519;-67
2023/01/13 11:48:19;;;;;;;4.03;0.98;;;7.60;99.90;;;;;;5033767;28;20444;-69
2023/01/13 11:51:13;;;;;;;0.55;0.30;;;7.30;99.90;;;;;;5032386;28;20485;-70
2023/01/13 11:54:01;;;;;;;5.60;0.95;;;7.60;99.90;;;;;;5033579;28;20146;-68
2023/01/13 11:56:53;;;;;;;8.07;1.42;;;7.60;99.90;;;;;;5033563;28;20045;-67
2023/01/13 11:59:46;;;;;;;9.02;1.27;;;7.70;99.90;;;;;;5017545;28;20524;-67
2023/01/13 12:02:33;;;;;;;7.72;1.00;;;7.70;99.90;;;;;;5015398;28;20045;-68
2023/01/13 12:05:17;;;;;;;11.65;1.70;;;7.70;99.90;;;;;;5015512;28;20075;-68
2023/01/13 12:08:15;;;;;;;11.27;2.22;;;7.70;99.90;;;;;;5033446;28;20653;-68
2023/01/13 12:11:14;;;;;;;10.18;1.90;;;7.90;99.90;;;;;;5033365;28;20045;-68
2023/01/13 12:14:25;;;;;;;5.57;1.02;;;7.90;99.90;;;;;;5033354;28;20089;-70
2023/01/13 12:16:50;;;;;;;2.72;0.60;;;7.90;99.90;;;;;;5028886;28;20057;-67
2023/01/13 12:19:29;;;;;;;10.95;1.63;;;7.90;99.90;;;;;;5032949;28;20094;-67
2023/01/13 12:21:57;;;;;;;5.95;1.60;;;7.90;99.90;;;;;;5032015;28;20652;-67
2023/01/13 12:24:46;;;;;;;3.95;0.88;;;8.00;99.90;;;;;;5032819;28;20121;-67
2023/01/13 12:27:24;;;;;;;9.60;0.85;;;8.00;99.90;;;;;;5021425;28;20045;-68
2023/01/13 12:29:55;;;;;;;1.85;0.80;;;8.00;99.90;;;;;;5031915;28;20069;-68
2023/01/13 12:32:35;;;;;;;0.45;0.22;;;8.10;99.90;;;;;;5031491;28;20056;-68
2023/01/13 12:35:10;;;;;;;4.35;1.13;;;8.10;99.90;;;;;;5033098;28;20424;-66
2023/01/13 12:37:53;;;;;;;5.93;1.33;;;8.10;99.90;;;;;;5033115;28;20038;-67
2023/01/13 12:40:40;;;;;;;4.60;0.93;;;8.10;99.90;;;;;;5015011;28;20049;-68
2023/01/13 12:46:20;;;;;;;1.02;0.55;;;8.20;99.90;;;;;;5031526;28;20061;-68
2023/01/13 12:49:03;;;;;;;6.78;1.20;;;8.70;99.90;;;;;;5033107;28;20404;-68
2023/01/13 12:51:36;;;;;;;7.40;1.08;;;8.20;99.90;;;;;;5031504;28;20041;-67
2023/01/13 12:54:24;;;;;;;6.43;1.00;;;8.20;99.90;;;;;;5032629;28;20044;-68
2023/01/13 12:56:51;;;;;;;5.30;0.93;;;7.90;99.90;;;;;;5031189;28;20048;-67
2023/01/13 12:59:23;;;;;;;9.60;1.40;;;8.10;99.90;;;;;;5031732;28;20042;-67
2023/01/13 13:02:09;;;;;;;3.15;0.70;;;8.20;99.90;;;;;;5032799;28;20049;-68
2023/01/13 13:04:42;;;;;;;2.20;1.00;;;8.20;99.90;;;;;;5031378;28;20034;-67
2023/01/13 13:07:14;;;;;;;3.00;0.82;;;7.90;99.90;;;;;;5031344;28;20037;-67
2023/01/13 13:09:49;;;;;;;7.05;1.25;;;8.90;99.90;;;;;;5032303;28;20045;-67
2023/01/13 13:15:21;;;;;;;3.92;0.93;;;8.20;99.90;;;;;;5032354;28;20042;-67
2023/01/13 13:18:19;;;;;;;4.72;0.80;;;8.20;99.90;;;;;;5031475;28;20052;-67
2023/01/13 13:21:07;;;;;;;5.30;0.68;;;8.20;99.90;;;;;;5032589;28;20378;-66
2023/01/13 13:23:36;;;;;;;4.97;1.30;;;8.20;99.90;;;;;;5032685;28;20037;-67
2023/01/13 13:26:30;;;;;;;3.63;1.25;;;8.10;99.90;;;;;;5032618;28;20037;-67
2023/01/13 13:29:12;;;;;;;3.55;0.75;;;8.20;99.90;;;;;;5031364;28;20045;-66
2023/01/13 13:31:51;;;;;;;3.20;0.50;;;8.20;99.90;;;;;;5032551;28;20503;-66
2023/01/13 13:34:26;;;;;;;1.85;0.85;;;8.20;99.90;;;;;;5032389;28;20045;-68
2023/01/13 13:36:51;;;;;;;1.02;0.35;;;8.30;99.90;;;;;;5032539;28;20041;-67
2023/01/13 13:48:18;;;;;;;6.93;0.88;;;8.50;99.90;;;;;;5034471;28;20045;-66
2023/01/13 13:50:53;;;;;;;7.28;1.70;;;8.50;99.90;;;;;;5034795;28;20506;-66
2023/01/13 13:53:19;;;;;;;7.97;1.02;;;8.50;99.90;;;;;;5034246;28;20080;-66
2023/01/13 13:55:53;;;;;;;6.05;1.45;;;8.50;99.90;;;;;;5017899;28;20088;-68
2023/01/13 13:58:20;;;;;;;6.80;0.70;;;8.50;99.90;;;;;;5017792;28;20089;-67
2023/01/13 14:00:48;;;;;;;2.92;0.68;;;8.10;99.90;;;;;;5035650;28;20433;-66
2023/01/13 14:03:23;;;;;;;3.72;0.93;;;8.60;99.90;;;;;;5035707;28;20052;-66
2023/01/13 14:06:04;;;;;;;2.35;1.00;;;8.60;99.90;;;;;;5035702;28;20047;-65
2023/01/13 14:08:33;;;;;;;2.72;0.80;;;8.60;99.90;;;;;;5035384;28;20124;-66
2023/01/13 14:10:59;;;;;;;8.38;0.90;;;8.60;99.90;;;;;;5035580;28;20053;-67
2023/01/13 14:13:27;;;;;;;4.45;0.47;;;8.50;99.90;;;;;;5035513;28;20128;-66
2023/01/13 14:16:00;;;;;;;4.85;0.90;;;8.60;99.90;;;;;;5033962;28;20045;-67
2023/01/13 14:18:27;;;;;;;6.97;0.88;;;8.50;99.90;;;;;;5035410;28;20045;-67
2023/01/13 14:21:02;;;;;;;3.05;0.95;;;8.50;99.90;;;;;;5017319;28;20049;-66
2023/01/13 14:23:31;;;;;;;3.72;0.80;;;8.50;99.90;;;;;;5033955;28;20120;-65